< < Back
Terminal Aerodrome Forecast


Current Version              Previous Versions:   1  2  3  4  5  6  7  8  9  

Terminal Aerodrome Forecast

739
FTUS44 KBMX 271000 AAA
TAFMGM
TAF AMD
KMGM 271023Z 2710/2806 00000KT 4SM BR SCT250
     FM271300 25002KT P6SM SKC
     FM271700 27009KT P6SM FEW250=

Latest METAR

662
SAUS80 KWBC 280400 RRA
MTRMGM
METAR KMGM 280353Z 23005KT 10SM CLR 28/23 A2999 RMK AO2 SLP150
T02830233


USA.gov is the U.S. government's official web portal to all federal, state and local government web resources and services.